createdAt,value
2022-08-26T14:55:12.450Z,5.00
2022-08-26T15:07:12.940Z,5.60
2022-08-26T15:19:13.281Z,5.20
2022-08-26T15:31:13.881Z,4.80
2022-08-26T15:43:27.705Z,4.80
2022-08-26T15:55:14.664Z,4.80
2022-08-26T16:07:15.132Z,4.90
2022-08-26T16:19:15.608Z,5.40
2022-08-26T16:31:16.095Z,5.80
2022-08-26T16:43:16.510Z,5.70
2022-08-26T16:55:16.911Z,5.60
2022-08-26T17:07:17.414Z,5.50
2022-08-26T17:19:17.888Z,6.00
2022-08-26T17:31:18.399Z,6.50
2022-08-26T17:43:18.780Z,7.50
2022-08-26T17:55:19.272Z,7.50
2022-08-26T18:07:19.684Z,7.80
2022-08-26T18:19:20.174Z,8.10
2022-08-26T18:31:20.650Z,8.40
2022-08-26T18:43:21.093Z,8.30
2022-08-26T18:55:21.493Z,8.90
2022-08-26T19:07:21.976Z,11.30
2022-08-26T19:19:22.432Z,9.30
2022-08-26T19:31:22.945Z,9.60
2022-08-26T19:43:23.345Z,9.90
2022-08-26T19:55:23.767Z,11.10
2022-08-26T20:07:24.219Z,10.50
2022-08-26T20:19:24.735Z,10.50
2022-08-26T20:31:25.210Z,10.10
2022-08-26T20:43:25.621Z,11.10
2022-08-26T20:55:26.073Z,12.70
2022-08-26T21:07:26.553Z,11.80
2022-08-26T21:19:26.984Z,11.80
2022-08-26T21:31:27.469Z,11.80
2022-08-26T21:43:35.430Z,12.80
2022-08-26T21:55:28.333Z,13.20
2022-08-26T22:07:28.819Z,13.20
2022-08-26T22:19:29.281Z,13.10
2022-08-26T22:31:38.082Z,13.50
2022-08-26T22:43:30.152Z,12.60
2022-08-26T22:55:30.618Z,14.20
2022-08-26T23:07:31.088Z,14.20
2022-08-26T23:19:31.535Z,13.90
